sensor_id;sensor_type;location;lat;lon;timestamp;P1;durP1;ratioP1;P2;durP2;ratioP2
61085;SDS011;46967;48.876;2.136;2022-07-29T00:00:36;4.03;;;1.55;;
61085;SDS011;46967;48.876;2.136;2022-07-29T00:03:02;3.22;;;1.50;;
61085;SDS011;46967;48.876;2.136;2022-07-29T00:05:27;5.03;;;2.15;;
61085;SDS011;46967;48.876;2.136;2022-07-29T00:07:53;1.90;;;1.42;;
61085;SDS011;46967;48.876;2.136;2022-07-29T00:10:19;6.60;;;1.80;;
61085;SDS011;46967;48.876;2.136;2022-07-29T00:12:44;5.80;;;1.80;;
61085;SDS011;46967;48.876;2.136;2022-07-29T00:15:09;4.15;;;1.77;;
61085;SDS011;46967;48.876;2.136;2022-07-29T00:17:35;5.85;;;1.85;;
61085;SDS011;46967;48.876;2.136;2022-07-29T00:20:00;3.35;;;1.70;;
61085;SDS011;46967;48.876;2.136;2022-07-29T00:22:26;3.78;;;1.73;;
61085;SDS011;46967;48.876;2.136;2022-07-29T00:24:51;3.95;;;1.65;;
61085;SDS011;46967;48.876;2.136;2022-07-29T00:27:17;5.00;;;1.85;;
61085;SDS011;46967;48.876;2.136;2022-07-29T00:29:42;6.40;;;1.95;;
61085;SDS011;46967;48.876;2.136;2022-07-29T00:32:08;4.35;;;1.85;;
61085;SDS011;46967;48.876;2.136;2022-07-29T00:34:33;1.77;;;1.50;;
61085;SDS011;46967;48.876;2.136;2022-07-29T00:37:17;9.55;;;2.03;;
61085;SDS011;46967;48.876;2.136;2022-07-29T00:39:43;4.05;;;1.90;;
61085;SDS011;46967;48.876;2.136;2022-07-29T00:42:08;3.47;;;1.58;;
61085;SDS011;46967;48.876;2.136;2022-07-29T00:44:38;5.65;;;2.00;;
61085;SDS011;46967;48.876;2.136;2022-07-29T00:47:07;2.20;;;1.60;;
61085;SDS011;46967;48.876;2.136;2022-07-29T00:49:34;6.22;;;1.90;;
61085;SDS011;46967;48.876;2.136;2022-07-29T00:52:03;4.18;;;2.10;;
61085;SDS011;46967;48.876;2.136;2022-07-29T00:54:29;4.88;;;1.80;;
61085;SDS011;46967;48.876;2.136;2022-07-29T00:56:56;6.55;;;1.80;;
61085;SDS011;46967;48.876;2.136;2022-07-29T00:59:23;3.97;;;1.80;;
61085;SDS011;46967;48.876;2.136;2022-07-29T01:01:48;4.85;;;1.58;;
61085;SDS011;46967;48.876;2.136;2022-07-29T01:04:13;3.53;;;1.63;;
61085;SDS011;46967;48.876;2.136;2022-07-29T01:06:39;3.03;;;1.65;;
61085;SDS011;46967;48.876;2.136;2022-07-29T01:09:04;5.88;;;1.85;;
61085;SDS011;46967;48.876;2.136;2022-07-29T01:11:30;1.77;;;1.40;;
61085;SDS011;46967;48.876;2.136;2022-07-29T01:13:56;5.10;;;1.60;;
61085;SDS011;46967;48.876;2.136;2022-07-29T01:16:25;3.33;;;1.50;;
61085;SDS011;46967;48.876;2.136;2022-07-29T01:18:56;2.60;;;1.52;;
61085;SDS011;46967;48.876;2.136;2022-07-29T01:29:45;6.68;;;1.80;;
61085;SDS011;46967;48.876;2.136;2022-07-29T01:32:22;2.25;;;1.40;;
61085;SDS011;46967;48.876;2.136;2022-07-29T01:37:45;4.78;;;1.50;;
61085;SDS011;46967;48.876;2.136;2022-07-29T01:40:31;3.08;;;1.42;;
61085;SDS011;46967;48.876;2.136;2022-07-29T01:43:03;2.78;;;1.42;;
61085;SDS011;46967;48.876;2.136;2022-07-29T01:48:31;1.80;;;1.30;;
61085;SDS011;46967;48.876;2.136;2022-07-29T01:51:02;4.72;;;1.73;;
61085;SDS011;46967;48.876;2.136;2022-07-29T01:53:32;4.47;;;1.85;;
61085;SDS011;46967;48.876;2.136;2022-07-29T01:56:02;3.13;;;1.70;;
61085;SDS011;46967;48.876;2.136;2022-07-29T01:58:29;3.50;;;1.83;;
61085;SDS011;46967;48.876;2.136;2022-07-29T02:00:58;3.20;;;1.63;;
61085;SDS011;46967;48.876;2.136;2022-07-29T02:03:25;2.60;;;1.73;;
61085;SDS011;46967;48.876;2.136;2022-07-29T02:05:53;3.17;;;1.40;;
61085;SDS011;46967;48.876;2.136;2022-07-29T02:08:21;2.97;;;1.67;;
61085;SDS011;46967;48.876;2.136;2022-07-29T02:10:48;2.80;;;1.60;;
61085;SDS011;46967;48.876;2.136;2022-07-29T02:13:15;2.83;;;1.73;;
61085;SDS011;46967;48.876;2.136;2022-07-29T02:15:42;2.63;;;1.50;;
61085;SDS011;46967;48.876;2.136;2022-07-29T02:18:11;4.88;;;1.50;;
61085;SDS011;46967;48.876;2.136;2022-07-29T02:20:41;6.80;;;1.98;;
61085;SDS011;46967;48.876;2.136;2022-07-29T02:23:11;3.78;;;1.73;;
61085;SDS011;46967;48.876;2.136;2022-07-29T02:25:40;6.50;;;1.67;;
61085;SDS011;46967;48.876;2.136;2022-07-29T02:28:07;4.28;;;1.88;;
61085;SDS011;46967;48.876;2.136;2022-07-29T02:30:33;3.85;;;1.90;;
61085;SDS011;46967;48.876;2.136;2022-07-29T02:33:04;2.53;;;1.60;;
61085;SDS011;46967;48.876;2.136;2022-07-29T02:35:31;2.88;;;1.73;;
61085;SDS011;46967;48.876;2.136;2022-07-29T02:37:57;3.40;;;1.90;;
61085;SDS011;46967;48.876;2.136;2022-07-29T02:40:41;3.50;;;1.48;;
61085;SDS011;46967;48.876;2.136;2022-07-29T02:43:07;5.00;;;1.80;;
61085;SDS011;46967;48.876;2.136;2022-07-29T02:45:35;6.45;;;1.80;;
61085;SDS011;46967;48.876;2.136;2022-07-29T02:48:04;4.03;;;1.60;;
61085;SDS011;46967;48.876;2.136;2022-07-29T02:50:32;3.35;;;1.67;;
61085;SDS011;46967;48.876;2.136;2022-07-29T02:53:02;4.00;;;1.80;;
61085;SDS011;46967;48.876;2.136;2022-07-29T02:55:44;6.05;;;1.65;;
61085;SDS011;46967;48.876;2.136;2022-07-29T02:58:32;3.28;;;1.60;;
61085;SDS011;46967;48.876;2.136;2022-07-29T03:01:03;4.43;;;2.20;;
61085;SDS011;46967;48.876;2.136;2022-07-29T03:03:34;5.70;;;2.30;;
61085;SDS011;46967;48.876;2.136;2022-07-29T03:06:02;2.30;;;1.80;;
61085;SDS011;46967;48.876;2.136;2022-07-29T03:08:30;7.40;;;2.13;;
61085;SDS011;46967;48.876;2.136;2022-07-29T03:10:57;3.53;;;1.92;;
61085;SDS011;46967;48.876;2.136;2022-07-29T03:13:24;4.25;;;1.48;;
61085;SDS011;46967;48.876;2.136;2022-07-29T03:15:51;3.60;;;1.70;;
61085;SDS011;46967;48.876;2.136;2022-07-29T03:18:17;3.50;;;1.80;;
61085;SDS011;46967;48.876;2.136;2022-07-29T03:20:43;3.95;;;1.90;;
61085;SDS011;46967;48.876;2.136;2022-07-29T03:23:09;8.38;;;2.05;;
61085;SDS011;46967;48.876;2.136;2022-07-29T03:25:34;5.65;;;1.60;;
61085;SDS011;46967;48.876;2.136;2022-07-29T03:28:00;3.67;;;2.17;;
61085;SDS011;46967;48.876;2.136;2022-07-29T03:30:25;2.60;;;1.92;;
61085;SDS011;46967;48.876;2.136;2022-07-29T03:32:51;3.95;;;1.90;;
61085;SDS011;46967;48.876;2.136;2022-07-29T03:35:17;6.63;;;1.80;;
61085;SDS011;46967;48.876;2.136;2022-07-29T03:37:43;3.72;;;1.70;;
61085;SDS011;46967;48.876;2.136;2022-07-29T03:40:09;2.58;;;1.70;;
61085;SDS011;46967;48.876;2.136;2022-07-29T03:42:40;2.88;;;1.58;;
61085;SDS011;46967;48.876;2.136;2022-07-29T03:45:08;4.45;;;2.00;;
61085;SDS011;46967;48.876;2.136;2022-07-29T03:50:06;6.72;;;2.28;;
61085;SDS011;46967;48.876;2.136;2022-07-29T03:52:33;3.50;;;1.90;;
61085;SDS011;46967;48.876;2.136;2022-07-29T03:55:00;5.20;;;1.60;;
61085;SDS011;46967;48.876;2.136;2022-07-29T03:57:27;3.65;;;1.75;;
61085;SDS011;46967;48.876;2.136;2022-07-29T03:59:55;3.28;;;1.98;;
61085;SDS011;46967;48.876;2.136;2022-07-29T04:02:20;7.75;;;1.85;;
61085;SDS011;46967;48.876;2.136;2022-07-29T04:04:47;2.60;;;1.75;;
61085;SDS011;46967;48.876;2.136;2022-07-29T04:07:13;3.20;;;1.70;;
61085;SDS011;46967;48.876;2.136;2022-07-29T04:09:40;3.65;;;1.75;;
61085;SDS011;46967;48.876;2.136;2022-07-29T04:12:05;3.00;;;1.80;;
61085;SDS011;46967;48.876;2.136;2022-07-29T04:14:32;7.18;;;2.45;;
61085;SDS011;46967;48.876;2.136;2022-07-29T04:16:58;3.83;;;2.08;;
61085;SDS011;46967;48.876;2.136;2022-07-29T04:19:25;5.88;;;2.10;;
61085;SDS011;46967;48.876;2.136;2022-07-29T04:21:50;5.15;;;1.90;;
61085;SDS011;46967;48.876;2.136;2022-07-29T04:24:16;9.80;;;2.30;;
61085;SDS011;46967;48.876;2.136;2022-07-29T04:26:41;3.83;;;1.70;;
61085;SDS011;46967;48.876;2.136;2022-07-29T04:29:07;3.08;;;1.67;;
61085;SDS011;46967;48.876;2.136;2022-07-29T04:31:32;6.78;;;2.35;;
61085;SDS011;46967;48.876;2.136;2022-07-29T04:33:58;4.55;;;1.90;;
61085;SDS011;46967;48.876;2.136;2022-07-29T04:36:23;4.60;;;1.90;;
61085;SDS011;46967;48.876;2.136;2022-07-29T04:38:48;5.68;;;1.70;;
61085;SDS011;46967;48.876;2.136;2022-07-29T04:41:14;4.28;;;1.80;;
61085;SDS011;46967;48.876;2.136;2022-07-29T04:43:39;2.97;;;1.63;;
61085;SDS011;46967;48.876;2.136;2022-07-29T04:46:05;2.40;;;1.83;;
61085;SDS011;46967;48.876;2.136;2022-07-29T04:48:31;8.20;;;1.77;;
61085;SDS011;46967;48.876;2.136;2022-07-29T04:50:57;4.65;;;2.10;;
61085;SDS011;46967;48.876;2.136;2022-07-29T04:53:23;5.00;;;2.08;;
61085;SDS011;46967;48.876;2.136;2022-07-29T04:55:48;6.95;;;2.00;;
61085;SDS011;46967;48.876;2.136;2022-07-29T04:58:13;3.67;;;1.60;;
61085;SDS011;46967;48.876;2.136;2022-07-29T05:00:39;3.78;;;2.00;;
61085;SDS011;46967;48.876;2.136;2022-07-29T05:03:05;2.67;;;1.67;;
61085;SDS011;46967;48.876;2.136;2022-07-29T05:05:30;7.05;;;2.00;;
61085;SDS011;46967;48.876;2.136;2022-07-29T05:07:56;3.50;;;2.08;;
61085;SDS011;46967;48.876;2.136;2022-07-29T05:10:22;5.30;;;1.70;;
61085;SDS011;46967;48.876;2.136;2022-07-29T05:12:47;6.15;;;1.70;;
61085;SDS011;46967;48.876;2.136;2022-07-29T05:15:13;3.80;;;1.60;;
61085;SDS011;46967;48.876;2.136;2022-07-29T05:17:39;7.30;;;1.75;;
61085;SDS011;46967;48.876;2.136;2022-07-29T05:20:05;4.45;;;1.55;;
61085;SDS011;46967;48.876;2.136;2022-07-29T05:22:31;4.32;;;1.90;;
61085;SDS011;46967;48.876;2.136;2022-07-29T05:24:56;8.77;;;1.80;;
61085;SDS011;46967;48.876;2.136;2022-07-29T05:27:22;4.55;;;1.63;;
61085;SDS011;46967;48.876;2.136;2022-07-29T05:29:47;5.05;;;1.80;;
61085;SDS011;46967;48.876;2.136;2022-07-29T05:32:13;4.45;;;1.80;;
61085;SDS011;46967;48.876;2.136;2022-07-29T05:34:38;5.93;;;1.55;;
61085;SDS011;46967;48.876;2.136;2022-07-29T05:37:03;3.45;;;1.70;;
61085;SDS011;46967;48.876;2.136;2022-07-29T05:39:29;5.88;;;1.75;;
61085;SDS011;46967;48.876;2.136;2022-07-29T05:41:54;3.25;;;1.90;;
61085;SDS011;46967;48.876;2.136;2022-07-29T05:44:20;4.68;;;1.70;;
61085;SDS011;46967;48.876;2.136;2022-07-29T05:46:45;5.47;;;1.90;;
61085;SDS011;46967;48.876;2.136;2022-07-29T05:49:10;2.85;;;1.20;;
61085;SDS011;46967;48.876;2.136;2022-07-29T05:51:36;4.40;;;1.45;;
61085;SDS011;46967;48.876;2.136;2022-07-29T05:54:01;6.88;;;1.85;;
61085;SDS011;46967;48.876;2.136;2022-07-29T05:56:27;10.50;;;1.80;;
61085;SDS011;46967;48.876;2.136;2022-07-29T05:58:52;11.43;;;1.63;;
61085;SDS011;46967;48.876;2.136;2022-07-29T06:01:18;7.05;;;1.60;;
61085;SDS011;46967;48.876;2.136;2022-07-29T06:03:43;13.32;;;2.35;;
61085;SDS011;46967;48.876;2.136;2022-07-29T06:06:09;8.38;;;1.60;;
61085;SDS011;46967;48.876;2.136;2022-07-29T06:08:34;5.18;;;1.50;;
61085;SDS011;46967;48.876;2.136;2022-07-29T06:11:01;11.30;;;1.80;;
61085;SDS011;46967;48.876;2.136;2022-07-29T06:13:26;8.63;;;1.73;;
61085;SDS011;46967;48.876;2.136;2022-07-29T06:15:52;6.18;;;1.60;;
61085;SDS011;46967;48.876;2.136;2022-07-29T06:18:17;3.78;;;1.70;;
61085;SDS011;46967;48.876;2.136;2022-07-29T06:20:43;7.00;;;1.58;;
61085;SDS011;46967;48.876;2.136;2022-07-29T06:23:09;4.82;;;1.60;;
61085;SDS011;46967;48.876;2.136;2022-07-29T06:25:35;5.25;;;1.40;;
61085;SDS011;46967;48.876;2.136;2022-07-29T06:28:01;4.07;;;1.50;;
61085;SDS011;46967;48.876;2.136;2022-07-29T06:30:27;20.67;;;2.13;;
61085;SDS011;46967;48.876;2.136;2022-07-29T06:32:53;10.40;;;1.80;;
61085;SDS011;46967;48.876;2.136;2022-07-29T06:35:19;9.45;;;1.70;;
61085;SDS011;46967;48.876;2.136;2022-07-29T06:37:45;4.20;;;1.85;;
61085;SDS011;46967;48.876;2.136;2022-07-29T06:40:11;4.68;;;1.48;;
61085;SDS011;46967;48.876;2.136;2022-07-29T06:42:55;10.48;;;1.83;;
61085;SDS011;46967;48.876;2.136;2022-07-29T06:45:20;6.68;;;2.17;;
61085;SDS011;46967;48.876;2.136;2022-07-29T06:47:45;8.43;;;1.95;;
61085;SDS011;46967;48.876;2.136;2022-07-29T06:50:11;5.78;;;1.98;;
61085;SDS011;46967;48.876;2.136;2022-07-29T06:52:38;11.23;;;1.85;;
61085;SDS011;46967;48.876;2.136;2022-07-29T06:55:04;7.85;;;2.00;;
61085;SDS011;46967;48.876;2.136;2022-07-29T06:57:29;4.88;;;1.50;;
61085;SDS011;46967;48.876;2.136;2022-07-29T06:59:58;3.85;;;1.55;;
61085;SDS011;46967;48.876;2.136;2022-07-29T07:02:23;3.78;;;1.80;;
61085;SDS011;46967;48.876;2.136;2022-07-29T07:04:49;5.72;;;1.80;;
61085;SDS011;46967;48.876;2.136;2022-07-29T07:07:14;10.10;;;1.92;;
61085;SDS011;46967;48.876;2.136;2022-07-29T07:09:39;11.40;;;1.63;;
61085;SDS011;46967;48.876;2.136;2022-07-29T07:12:05;5.65;;;1.38;;
61085;SDS011;46967;48.876;2.136;2022-07-29T07:14:30;7.72;;;1.80;;
61085;SDS011;46967;48.876;2.136;2022-07-29T07:16:56;5.55;;;1.60;;
61085;SDS011;46967;48.876;2.136;2022-07-29T07:19:21;10.75;;;1.80;;
61085;SDS011;46967;48.876;2.136;2022-07-29T07:21:47;9.13;;;1.90;;
61085;SDS011;46967;48.876;2.136;2022-07-29T07:24:12;6.07;;;1.42;;
61085;SDS011;46967;48.876;2.136;2022-07-29T07:26:37;5.60;;;1.30;;
61085;SDS011;46967;48.876;2.136;2022-07-29T07:29:04;4.28;;;1.60;;
61085;SDS011;46967;48.876;2.136;2022-07-29T07:31:30;7.68;;;1.70;;
61085;SDS011;46967;48.876;2.136;2022-07-29T07:33:55;3.90;;;1.50;;
61085;SDS011;46967;48.876;2.136;2022-07-29T07:36:21;4.40;;;1.40;;
61085;SDS011;46967;48.876;2.136;2022-07-29T07:38:47;2.75;;;1.30;;
61085;SDS011;46967;48.876;2.136;2022-07-29T07:41:12;3.50;;;1.48;;
61085;SDS011;46967;48.876;2.136;2022-07-29T07:43:37;4.38;;;1.70;;
61085;SDS011;46967;48.876;2.136;2022-07-29T07:46:03;2.10;;;1.20;;
61085;SDS011;46967;48.876;2.136;2022-07-29T07:48:28;5.57;;;1.77;;
61085;SDS011;46967;48.876;2.136;2022-07-29T07:50:54;4.63;;;1.45;;
61085;SDS011;46967;48.876;2.136;2022-07-29T07:53:19;10.88;;;1.90;;
61085;SDS011;46967;48.876;2.136;2022-07-29T07:55:44;5.65;;;1.38;;
61085;SDS011;46967;48.876;2.136;2022-07-29T07:58:10;13.77;;;1.85;;
61085;SDS011;46967;48.876;2.136;2022-07-29T08:00:35;5.72;;;1.27;;
61085;SDS011;46967;48.876;2.136;2022-07-29T08:03:01;8.65;;;1.65;;
61085;SDS011;46967;48.876;2.136;2022-07-29T08:05:27;10.75;;;1.50;;
61085;SDS011;46967;48.876;2.136;2022-07-29T08:07:53;5.60;;;1.77;;
61085;SDS011;46967;48.876;2.136;2022-07-29T08:10:18;6.32;;;1.80;;
61085;SDS011;46967;48.876;2.136;2022-07-29T08:13:03;5.03;;;1.75;;
61085;SDS011;46967;48.876;2.136;2022-07-29T08:15:33;7.47;;;1.60;;
61085;SDS011;46967;48.876;2.136;2022-07-29T08:17:58;8.38;;;1.70;;
61085;SDS011;46967;48.876;2.136;2022-07-29T08:20:24;4.65;;;1.50;;
61085;SDS011;46967;48.876;2.136;2022-07-29T08:22:50;5.38;;;1.60;;
61085;SDS011;46967;48.876;2.136;2022-07-29T08:25:16;8.10;;;1.70;;
61085;SDS011;46967;48.876;2.136;2022-07-29T08:27:45;4.55;;;1.63;;
61085;SDS011;46967;48.876;2.136;2022-07-29T08:30:11;4.63;;;1.35;;
61085;SDS011;46967;48.876;2.136;2022-07-29T08:32:36;4.57;;;1.52;;
61085;SDS011;46967;48.876;2.136;2022-07-29T08:35:01;14.73;;;1.60;;
61085;SDS011;46967;48.876;2.136;2022-07-29T08:37:27;6.22;;;1.45;;
61085;SDS011;46967;48.876;2.136;2022-07-29T08:39:52;4.45;;;1.45;;
61085;SDS011;46967;48.876;2.136;2022-07-29T08:42:17;6.50;;;1.67;;
61085;SDS011;46967;48.876;2.136;2022-07-29T08:44:44;6.82;;;1.50;;
61085;SDS011;46967;48.876;2.136;2022-07-29T08:47:10;2.58;;;1.30;;
61085;SDS011;46967;48.876;2.136;2022-07-29T08:49:38;4.50;;;1.50;;
61085;SDS011;46967;48.876;2.136;2022-07-29T08:52:04;8.38;;;1.48;;
61085;SDS011;46967;48.876;2.136;2022-07-29T08:54:30;8.65;;;1.35;;
61085;SDS011;46967;48.876;2.136;2022-07-29T08:56:55;4.10;;;1.65;;
61085;SDS011;46967;48.876;2.136;2022-07-29T08:59:22;10.27;;;1.30;;
61085;SDS011;46967;48.876;2.136;2022-07-29T09:01:52;5.95;;;1.30;;
61085;SDS011;46967;48.876;2.136;2022-07-29T09:04:18;2.88;;;1.17;;
61085;SDS011;46967;48.876;2.136;2022-07-29T09:06:46;8.43;;;1.10;;
61085;SDS011;46967;48.876;2.136;2022-07-29T09:09:14;5.65;;;1.27;;
61085;SDS011;46967;48.876;2.136;2022-07-29T09:11:40;10.30;;;1.50;;
61085;SDS011;46967;48.876;2.136;2022-07-29T09:14:07;3.97;;;1.13;;
61085;SDS011;46967;48.876;2.136;2022-07-29T09:16:56;4.97;;;1.27;;
61085;SDS011;46967;48.876;2.136;2022-07-29T09:19:25;9.50;;;1.65;;
61085;SDS011;46967;48.876;2.136;2022-07-29T09:21:51;5.93;;;1.25;;
61085;SDS011;46967;48.876;2.136;2022-07-29T09:24:23;5.65;;;1.20;;
61085;SDS011;46967;48.876;2.136;2022-07-29T09:26:49;6.63;;;1.20;;
61085;SDS011;46967;48.876;2.136;2022-07-29T09:29:16;4.25;;;1.00;;
61085;SDS011;46967;48.876;2.136;2022-07-29T09:31:49;6.45;;;1.35;;
61085;SDS011;46967;48.876;2.136;2022-07-29T09:34:17;4.97;;;1.10;;
61085;SDS011;46967;48.876;2.136;2022-07-29T09:36:50;8.95;;;1.50;;
61085;SDS011;46967;48.876;2.136;2022-07-29T09:39:26;3.38;;;1.35;;
61085;SDS011;46967;48.876;2.136;2022-07-29T09:41:53;4.78;;;1.20;;
61085;SDS011;46967;48.876;2.136;2022-07-29T09:44:21;8.73;;;1.50;;
61085;SDS011;46967;48.876;2.136;2022-07-29T09:46:58;5.22;;;1.30;;
61085;SDS011;46967;48.876;2.136;2022-07-29T09:49:30;6.00;;;1.23;;
61085;SDS011;46967;48.876;2.136;2022-07-29T09:52:06;5.63;;;1.27;;
61085;SDS011;46967;48.876;2.136;2022-07-29T09:54:33;3.53;;;1.00;;
61085;SDS011;46967;48.876;2.136;2022-07-29T09:59:31;9.07;;;1.35;;
61085;SDS011;46967;48.876;2.136;2022-07-29T10:01:58;6.93;;;1.15;;
61085;SDS011;46967;48.876;2.136;2022-07-29T10:04:26;3.88;;;0.98;;
61085;SDS011;46967;48.876;2.136;2022-07-29T10:07:02;5.65;;;1.13;;
61085;SDS011;46967;48.876;2.136;2022-07-29T10:09:30;8.73;;;1.15;;
61085;SDS011;46967;48.876;2.136;2022-07-29T10:12:12;1.98;;;0.93;;
61085;SDS011;46967;48.876;2.136;2022-07-29T10:14:39;4.20;;;1.13;;
61085;SDS011;46967;48.876;2.136;2022-07-29T10:17:06;3.90;;;1.30;;
61085;SDS011;46967;48.876;2.136;2022-07-29T10:19:33;7.22;;;1.45;;
61085;SDS011;46967;48.876;2.136;2022-07-29T10:22:00;3.65;;;1.30;;
61085;SDS011;46967;48.876;2.136;2022-07-29T10:24:27;8.43;;;1.20;;
61085;SDS011;46967;48.876;2.136;2022-07-29T10:26:54;2.85;;;1.10;;
61085;SDS011;46967;48.876;2.136;2022-07-29T10:29:21;5.57;;;1.13;;
61085;SDS011;46967;48.876;2.136;2022-07-29T10:31:56;4.30;;;1.10;;
61085;SDS011;46967;48.876;2.136;2022-07-29T10:42:25;5.10;;;1.00;;
61085;SDS011;46967;48.876;2.136;2022-07-29T10:44:54;3.72;;;1.15;;
61085;SDS011;46967;48.876;2.136;2022-07-29T10:47:24;4.22;;;1.00;;
61085;SDS011;46967;48.876;2.136;2022-07-29T10:49:59;2.83;;;1.00;;
61085;SDS011;46967;48.876;2.136;2022-07-29T11:00:38;3.47;;;1.33;;
61085;SDS011;46967;48.876;2.136;2022-07-29T11:03:04;6.50;;;1.13;;
61085;SDS011;46967;48.876;2.136;2022-07-29T11:05:29;5.03;;;1.15;;
61085;SDS011;46967;48.876;2.136;2022-07-29T11:10:44;5.28;;;1.10;;
61085;SDS011;46967;48.876;2.136;2022-07-29T11:13:10;3.05;;;0.80;;
61085;SDS011;46967;48.876;2.136;2022-07-29T11:15:54;3.83;;;1.30;;
61085;SDS011;46967;48.876;2.136;2022-07-29T11:18:21;20.92;;;1.48;;
61085;SDS011;46967;48.876;2.136;2022-07-29T11:20:47;2.88;;;1.02;;
61085;SDS011;46967;48.876;2.136;2022-07-29T11:23:30;7.57;;;1.40;;
61085;SDS011;46967;48.876;2.136;2022-07-29T11:31:16;5.72;;;0.80;;
61085;SDS011;46967;48.876;2.136;2022-07-29T11:33:44;8.40;;;1.88;;
61085;SDS011;46967;48.876;2.136;2022-07-29T11:36:10;5.10;;;1.67;;
61085;SDS011;46967;48.876;2.136;2022-07-29T11:38:37;7.10;;;2.40;;
61085;SDS011;46967;48.876;2.136;2022-07-29T11:43:50;5.35;;;1.50;;
61085;SDS011;46967;48.876;2.136;2022-07-29T11:49:06;2.58;;;1.02;;
61085;SDS011;46967;48.876;2.136;2022-07-29T11:51:33;1.92;;;1.00;;
61085;SDS011;46967;48.876;2.136;2022-07-29T11:54:00;5.30;;;1.17;;
61085;SDS011;46967;48.876;2.136;2022-07-29T11:56:26;4.40;;;1.15;;
61085;SDS011;46967;48.876;2.136;2022-07-29T11:59:06;2.80;;;0.95;;
61085;SDS011;46967;48.876;2.136;2022-07-29T12:01:34;4.35;;;0.95;;
61085;SDS011;46967;48.876;2.136;2022-07-29T12:04:06;3.30;;;1.10;;
61085;SDS011;46967;48.876;2.136;2022-07-29T12:06:35;12.43;;;1.42;;
61085;SDS011;46967;48.876;2.136;2022-07-29T12:09:00;5.23;;;1.00;;
61085;SDS011;46967;48.876;2.136;2022-07-29T12:11:32;9.50;;;1.15;;
61085;SDS011;46967;48.876;2.136;2022-07-29T12:13:57;11.65;;;1.30;;
61085;SDS011;46967;48.876;2.136;2022-07-29T12:16:22;10.30;;;1.30;;
61085;SDS011;46967;48.876;2.136;2022-07-29T12:18:55;6.20;;;1.35;;
61085;SDS011;46967;48.876;2.136;2022-07-29T12:21:21;7.20;;;1.33;;
61085;SDS011;46967;48.876;2.136;2022-07-29T12:23:52;6.07;;;1.42;;
61085;SDS011;46967;48.876;2.136;2022-07-29T12:26:19;3.38;;;1.20;;
61085;SDS011;46967;48.876;2.136;2022-07-29T12:28:44;4.97;;;1.38;;
61085;SDS011;46967;48.876;2.136;2022-07-29T12:31:13;1.33;;;1.00;;
61085;SDS011;46967;48.876;2.136;2022-07-29T12:33:39;7.90;;;1.20;;
61085;SDS011;46967;48.876;2.136;2022-07-29T12:36:05;4.05;;;1.00;;
61085;SDS011;46967;48.876;2.136;2022-07-29T12:38:30;5.55;;;1.20;;
61085;SDS011;46967;48.876;2.136;2022-07-29T12:40:56;3.78;;;1.35;;
61085;SDS011;46967;48.876;2.136;2022-07-29T12:43:22;4.07;;;1.38;;
61085;SDS011;46967;48.876;2.136;2022-07-29T12:45:50;4.82;;;1.20;;
61085;SDS011;46967;48.876;2.136;2022-07-29T12:48:17;2.83;;;1.08;;
61085;SDS011;46967;48.876;2.136;2022-07-29T12:50:58;4.05;;;1.02;;
61085;SDS011;46967;48.876;2.136;2022-07-29T12:53:25;4.38;;;1.20;;
61085;SDS011;46967;48.876;2.136;2022-07-29T12:55:52;3.80;;;1.20;;
61085;SDS011;46967;48.876;2.136;2022-07-29T12:58:32;4.72;;;1.30;;
61085;SDS011;46967;48.876;2.136;2022-07-29T13:01:06;5.80;;;1.10;;
61085;SDS011;46967;48.876;2.136;2022-07-29T13:11:40;2.97;;;1.08;;
61085;SDS011;46967;48.876;2.136;2022-07-29T13:14:30;4.40;;;1.35;;
61085;SDS011;46967;48.876;2.136;2022-07-29T13:19:33;2.40;;;1.00;;
61085;SDS011;46967;48.876;2.136;2022-07-29T13:22:00;4.50;;;1.20;;
61085;SDS011;46967;48.876;2.136;2022-07-29T13:24:25;2.17;;;0.95;;
61085;SDS011;46967;48.876;2.136;2022-07-29T13:26:50;5.40;;;0.98;;
61085;SDS011;46967;48.876;2.136;2022-07-29T13:29:16;3.72;;;1.00;;
61085;SDS011;46967;48.876;2.136;2022-07-29T13:31:42;2.08;;;1.05;;
61085;SDS011;46967;48.876;2.136;2022-07-29T13:34:07;4.47;;;0.93;;
61085;SDS011;46967;48.876;2.136;2022-07-29T13:36:32;8.30;;;1.10;;
61085;SDS011;46967;48.876;2.136;2022-07-29T13:38:58;7.90;;;1.10;;
61085;SDS011;46967;48.876;2.136;2022-07-29T13:41:24;5.88;;;0.93;;
61085;SDS011;46967;48.876;2.136;2022-07-29T13:43:49;2.88;;;0.77;;
61085;SDS011;46967;48.876;2.136;2022-07-29T13:46:14;2.25;;;1.00;;
61085;SDS011;46967;48.876;2.136;2022-07-29T13:48:40;3.20;;;1.00;;
61085;SDS011;46967;48.876;2.136;2022-07-29T13:51:06;5.65;;;1.20;;
61085;SDS011;46967;48.876;2.136;2022-07-29T13:53:32;5.65;;;1.02;;
61085;SDS011;46967;48.876;2.136;2022-07-29T13:55:57;3.08;;;1.23;;
61085;SDS011;46967;48.876;2.136;2022-07-29T13:58:23;4.63;;;0.90;;
61085;SDS011;46967;48.876;2.136;2022-07-29T14:00:48;3.05;;;1.05;;
61085;SDS011;46967;48.876;2.136;2022-07-29T14:03:14;2.60;;;0.85;;
61085;SDS011;46967;48.876;2.136;2022-07-29T14:05:40;8.40;;;1.20;;
61085;SDS011;46967;48.876;2.136;2022-07-29T14:08:05;3.47;;;1.00;;
61085;SDS011;46967;48.876;2.136;2022-07-29T14:10:30;3.42;;;1.05;;
61085;SDS011;46967;48.876;2.136;2022-07-29T14:12:56;5.40;;;0.90;;
61085;SDS011;46967;48.876;2.136;2022-07-29T14:15:21;5.07;;;1.20;;
61085;SDS011;46967;48.876;2.136;2022-07-29T14:17:48;3.35;;;1.00;;
61085;SDS011;46967;48.876;2.136;2022-07-29T14:20:13;3.58;;;1.23;;
61085;SDS011;46967;48.876;2.136;2022-07-29T14:22:40;3.80;;;1.08;;
61085;SDS011;46967;48.876;2.136;2022-07-29T14:25:06;2.72;;;1.05;;
61085;SDS011;46967;48.876;2.136;2022-07-29T14:27:32;3.97;;;1.02;;
61085;SDS011;46967;48.876;2.136;2022-07-29T14:29:57;1.65;;;0.80;;
61085;SDS011;46967;48.876;2.136;2022-07-29T14:32:23;1.20;;;0.90;;
61085;SDS011;46967;48.876;2.136;2022-07-29T14:34:48;1.90;;;0.90;;
61085;SDS011;46967;48.876;2.136;2022-07-29T14:37:13;1.30;;;0.82;;
61085;SDS011;46967;48.876;2.136;2022-07-29T14:39:38;3.03;;;1.02;;
61085;SDS011;46967;48.876;2.136;2022-07-29T14:42:04;1.98;;;1.08;;
61085;SDS011;46967;48.876;2.136;2022-07-29T14:44:29;5.50;;;1.00;;
61085;SDS011;46967;48.876;2.136;2022-07-29T14:46:57;3.35;;;0.90;;
61085;SDS011;46967;48.876;2.136;2022-07-29T14:49:24;3.35;;;1.10;;
61085;SDS011;46967;48.876;2.136;2022-07-29T14:51:49;4.85;;;1.10;;
61085;SDS011;46967;48.876;2.136;2022-07-29T14:54:15;3.97;;;0.88;;
61085;SDS011;46967;48.876;2.136;2022-07-29T14:56:40;2.33;;;1.10;;
61085;SDS011;46967;48.876;2.136;2022-07-29T14:59:05;7.68;;;1.10;;
61085;SDS011;46967;48.876;2.136;2022-07-29T15:01:31;4.80;;;0.88;;
61085;SDS011;46967;48.876;2.136;2022-07-29T15:03:56;3.25;;;0.95;;
61085;SDS011;46967;48.876;2.136;2022-07-29T15:06:22;2.58;;;0.95;;
61085;SDS011;46967;48.876;2.136;2022-07-29T15:08:47;5.07;;;1.25;;
61085;SDS011;46967;48.876;2.136;2022-07-29T15:11:13;8.73;;;1.10;;
61085;SDS011;46967;48.876;2.136;2022-07-29T15:13:38;2.65;;;1.10;;
61085;SDS011;46967;48.876;2.136;2022-07-29T15:16:04;3.10;;;1.15;;
61085;SDS011;46967;48.876;2.136;2022-07-29T15:18:30;2.08;;;0.70;;
61085;SDS011;46967;48.876;2.136;2022-07-29T15:20:55;2.80;;;1.00;;
61085;SDS011;46967;48.876;2.136;2022-07-29T15:23:21;2.22;;;0.80;;
61085;SDS011;46967;48.876;2.136;2022-07-29T15:25:46;2.15;;;1.20;;
61085;SDS011;46967;48.876;2.136;2022-07-29T15:28:11;2.38;;;1.10;;
61085;SDS011;46967;48.876;2.136;2022-07-29T15:30:37;5.30;;;1.17;;
61085;SDS011;46967;48.876;2.136;2022-07-29T15:33:05;5.88;;;1.38;;
61085;SDS011;46967;48.876;2.136;2022-07-29T15:35:31;2.20;;;0.82;;
61085;SDS011;46967;48.876;2.136;2022-07-29T15:37:57;5.22;;;1.23;;
61085;SDS011;46967;48.876;2.136;2022-07-29T15:40:23;2.38;;;0.95;;
61085;SDS011;46967;48.876;2.136;2022-07-29T15:42:48;2.60;;;1.30;;
61085;SDS011;46967;48.876;2.136;2022-07-29T15:45:13;3.53;;;1.10;;
61085;SDS011;46967;48.876;2.136;2022-07-29T15:47:39;3.70;;;1.10;;